createdAt,value
2023-05-18T00:01:40.116Z,19.9
2023-05-18T00:07:03.397Z,19.9
2023-05-18T00:12:24.287Z,19.9
2023-05-18T00:17:46.549Z,20
2023-05-18T00:23:07.680Z,20
2023-05-18T00:28:28.012Z,20
2023-05-18T00:34:05.428Z,19.9
2023-05-18T00:39:42.632Z,20
2023-05-18T00:45:33.900Z,19.9
2023-05-18T00:51:26.263Z,20
2023-05-18T00:57:02.338Z,19.9
2023-05-18T01:02:53.834Z,20
2023-05-18T01:08:15.069Z,19.9
2023-05-18T01:14:06.840Z,19.9
2023-05-18T01:19:58.162Z,19.9
2023-05-18T01:25:50.266Z,19.9
2023-05-18T01:31:26.176Z,20
2023-05-18T01:37:02.675Z,19.9
2023-05-18T01:42:56.590Z,19.9
2023-05-18T01:48:33.929Z,19.9
2023-05-18T01:54:10.059Z,19.9
2023-05-18T01:59:46.390Z,19.9
2023-05-18T02:05:40.526Z,19.9
2023-05-18T02:11:15.290Z,20
2023-05-18T02:17:07.254Z,19.9
2023-05-18T02:23:01.357Z,20
2023-05-18T02:28:54.490Z,19.9
2023-05-18T02:34:31.007Z,19.9
2023-05-18T02:40:07.884Z,20
2023-05-18T02:45:59.152Z,19.9
2023-05-18T02:51:36.103Z,19.9
2023-05-18T02:57:27.721Z,19.9
2023-05-18T03:03:21.472Z,20
2023-05-18T03:09:14.559Z,19.9
2023-05-18T03:15:06.174Z,20
2023-05-18T03:20:43.537Z,19.9
2023-05-18T03:26:05.173Z,19.9
2023-05-18T03:31:41.554Z,20
2023-05-18T03:37:33.728Z,20
2023-05-18T03:43:25.981Z,19.9
2023-05-18T03:49:02.318Z,19.9
2023-05-18T03:54:53.975Z,19.9
2023-05-18T04:00:46.420Z,20
2023-05-18T04:06:39.576Z,20
2023-05-18T04:12:32.973Z,19.9
2023-05-18T04:18:25.399Z,20
2023-05-18T04:24:18.071Z,19.9
2023-05-18T04:30:09.100Z,20
2023-05-18T04:36:00.623Z,20
2023-05-18T04:41:38.568Z,20
2023-05-18T04:47:30.427Z,19.9
2023-05-18T04:53:23.132Z,20
2023-05-18T04:58:59.186Z,19.9
2023-05-18T05:04:54.160Z,19.9
2023-05-18T05:10:46.158Z,20
2023-05-18T05:16:38.122Z,19.9
2023-05-18T05:22:29.922Z,19.9
2023-05-18T05:28:22.729Z,20
2023-05-18T05:33:59.628Z,20
2023-05-18T05:39:51.525Z,19.9
2023-05-18T05:45:45.657Z,19.9
2023-05-18T05:51:37.492Z,19.9
2023-05-18T05:57:28.828Z,19.9
2023-05-18T06:03:21.312Z,19.9
2023-05-18T06:09:13.815Z,19.9
2023-05-18T06:15:07.818Z,19.9
2023-05-18T06:21:03.849Z,19.9
2023-05-18T06:26:55.298Z,19.9
2023-05-18T06:32:47.418Z,19.9
2023-05-18T06:38:25.211Z,19.9
2023-05-18T06:44:17.076Z,19.9
2023-05-18T06:49:53.474Z,19.9
2023-05-18T06:55:29.900Z,19.9
2023-05-18T07:01:21.242Z,19.9
2023-05-18T07:07:14.039Z,19.9
2023-05-18T07:12:35.337Z,19.9
2023-05-18T07:18:26.911Z,19.9
2023-05-18T07:24:21.254Z,19.9
2023-05-18T07:29:57.758Z,19.9
2023-05-18T07:35:50.181Z,19.9
2023-05-18T07:41:26.445Z,19.9
2023-05-18T07:47:19.347Z,19.9
2023-05-18T07:52:56.142Z,19.9
2023-05-18T07:58:31.817Z,19.9
2023-05-18T08:04:08.771Z,19.9
2023-05-18T08:09:45.784Z,19.9
2023-05-18T08:15:36.996Z,19.9
2023-05-18T08:21:31.216Z,19.9
2023-05-18T08:27:08.438Z,19.9
2023-05-18T08:32:45.433Z,19.9
2023-05-18T08:38:22.396Z,19.9
2023-05-18T08:43:59.071Z,19.9
2023-05-18T08:49:38.525Z,19.9
2023-05-18T08:55:15.065Z,19.9
2023-05-18T09:00:51.999Z,19.9
2023-05-18T09:06:28.950Z,19.9
2023-05-18T09:12:05.127Z,19.9
2023-05-18T09:17:43.964Z,19.9
2023-05-18T09:23:20.465Z,19.9
2023-05-18T09:28:57.128Z,19.9
2023-05-18T09:34:36.516Z,19.9
2023-05-18T09:40:13.474Z,19.9
2023-05-18T09:45:34.531Z,19.9
2023-05-18T09:50:56.345Z,19.9
2023-05-18T09:56:32.305Z,19.9
2023-05-18T10:02:10.122Z,19.9
2023-05-18T10:07:47.490Z,19.9
2023-05-18T10:12:53.136Z,19.9
2023-05-18T10:18:09.939Z,19.9
2023-05-18T10:23:18.937Z,19.8
2023-05-18T10:28:56.786Z,19.9
2023-05-18T10:34:53.923Z,19.9
2023-05-18T10:40:30.470Z,19.9
2023-05-18T10:45:38.485Z,19.9
2023-05-18T10:50:44.720Z,19.9
2023-05-18T10:57:05.102Z,19.9
2023-05-18T11:02:41.266Z,19.9
2023-05-18T11:08:02.408Z,19.9
2023-05-18T11:13:23.619Z,19.9
2023-05-18T11:18:59.834Z,19.9
2023-05-18T11:24:51.544Z,19.8
2023-05-18T11:30:37.282Z,19.8
2023-05-18T11:36:25.362Z,19.8
2023-05-18T11:42:17.609Z,19.8
2023-05-18T11:47:38.199Z,19.9
2023-05-18T11:53:17.391Z,19.8
2023-05-18T11:58:41.396Z,19.8
2023-05-18T12:04:25.767Z,19.8
2023-05-18T12:10:02.125Z,19.8
2023-05-18T12:15:23.336Z,19.8
2023-05-18T12:21:00.771Z,19.8
2023-05-18T12:26:36.191Z,19.8
2023-05-18T12:32:12.769Z,19.8
2023-05-18T12:37:44.641Z,19.8
2023-05-18T12:43:24.590Z,19.8
2023-05-18T12:49:19.319Z,19.8
2023-05-18T12:55:12.166Z,19.8
2023-05-18T13:00:48.908Z,19.8
2023-05-18T13:06:26.523Z,19.8
2023-05-18T13:12:45.037Z,19.8
2023-05-18T13:18:37.492Z,19.8
2023-05-18T13:24:16.776Z,19.8
2023-05-18T13:29:54.642Z,19.8
2023-05-18T13:35:31.374Z,19.8
2023-05-18T13:41:09.048Z,19.8
2023-05-18T13:46:30.377Z,19.8
2023-05-18T13:52:07.671Z,19.8
2023-05-18T13:58:01.373Z,19.8
2023-05-18T14:03:53.937Z,19.8
2023-05-18T14:09:16.254Z,19.8
2023-05-18T14:15:07.839Z,19.8
2023-05-18T14:21:00.118Z,19.8
2023-05-18T14:26:50.928Z,19.8
2023-05-18T14:32:43.087Z,19.8
2023-05-18T14:38:36.361Z,19.8
2023-05-18T14:44:11.833Z,19.8
2023-05-18T14:50:19.969Z,19.8
2023-05-18T14:56:13.168Z,19.8
2023-05-18T15:02:03.764Z,19.8
2023-05-18T15:07:57.550Z,19.8
2023-05-18T15:13:33.348Z,19.8
2023-05-18T15:19:24.886Z,19.8
2023-05-18T15:25:17.053Z,19.8
2023-05-18T15:31:10.067Z,19.8
2023-05-18T15:37:01.394Z,19.8
2023-05-18T15:42:53.581Z,19.8
2023-05-18T15:48:44.992Z,19.8
2023-05-18T15:54:21.161Z,19.8
2023-05-18T16:00:12.632Z,19.8
2023-05-18T16:06:05.324Z,19.8
2023-05-18T16:11:41.412Z,19.8
2023-05-18T16:17:20.726Z,19.8
2023-05-18T16:23:12.088Z,19.8
2023-05-18T16:28:33.392Z,19.8
2023-05-18T16:34:26.262Z,19.8
2023-05-18T16:40:18.556Z,19.8
2023-05-18T16:46:10.514Z,19.8
2023-05-18T16:52:05.571Z,19.8
2023-05-18T16:57:56.913Z,19.8
2023-05-18T17:04:04.913Z,19.8
2023-05-18T17:09:59.978Z,19.8
2023-05-18T17:15:36.495Z,19.8
2023-05-18T17:21:12.749Z,19.8
2023-05-18T17:27:16.283Z,19.8
2023-05-18T17:32:55.148Z,19.8
2023-05-18T17:38:46.807Z,19.8
2023-05-18T17:44:39.078Z,19.8
2023-05-18T17:50:31.150Z,19.8
2023-05-18T17:56:21.820Z,19.8
2023-05-18T18:01:59.037Z,19.8
2023-05-18T18:07:52.185Z,19.8
2023-05-18T18:13:28.638Z,19.9
2023-05-18T18:19:21.713Z,19.9
2023-05-18T18:24:58.164Z,19.8
2023-05-18T18:30:34.249Z,19.9
2023-05-18T18:35:55.839Z,19.9
2023-05-18T18:41:47.696Z,19.9
2023-05-18T18:47:39.679Z,19.9
2023-05-18T18:53:32.051Z,19.9
2023-05-18T18:59:23.003Z,19.9
2023-05-18T19:04:58.996Z,19.9
2023-05-18T19:10:51.736Z,20
2023-05-18T19:16:28.668Z,20
2023-05-18T19:22:21.172Z,20
2023-05-18T19:28:13.472Z,20
2023-05-18T19:34:05.977Z,20
2023-05-18T19:39:42.535Z,20.1
2023-05-18T19:45:37.825Z,20.1
2023-05-18T19:51:30.186Z,20.1
2023-05-18T19:57:20.965Z,20.1
2023-05-18T20:03:13.638Z,20.1
2023-05-18T20:08:50.045Z,20.1
2023-05-18T20:14:42.056Z,20.2
2023-05-18T20:20:34.795Z,20.2
2023-05-18T20:25:55.621Z,20.2
2023-05-18T20:31:34.219Z,20.2
2023-05-18T20:37:11.431Z,20.2
2023-05-18T20:42:47.754Z,20.2
2023-05-18T20:48:24.324Z,20.3
2023-05-18T20:54:16.437Z,20.3
2023-05-18T21:00:08.085Z,20.3
2023-05-18T21:06:03.628Z,20.3
2023-05-18T21:11:25.158Z,20.3
2023-05-18T21:17:01.107Z,20.3
2023-05-18T21:22:53.209Z,20.3
2023-05-18T21:28:45.040Z,20.3
2023-05-18T21:34:37.567Z,20.3
2023-05-18T21:40:29.174Z,20.4
2023-05-18T21:45:50.585Z,20.4
2023-05-18T21:51:29.972Z,20.4
2023-05-18T21:57:06.722Z,20.4
2023-05-18T22:02:43.398Z,20.4
2023-05-18T22:08:34.937Z,20.4
2023-05-18T22:14:10.818Z,20.4
2023-05-18T22:19:31.989Z,20.4
2023-05-18T22:25:35.422Z,20.5
2023-05-18T22:31:11.229Z,20.5
2023-05-18T22:36:47.587Z,20.5
2023-05-18T22:42:07.731Z,20.6
2023-05-18T22:47:59.434Z,20.6
2023-05-18T22:53:36.036Z,20.6
2023-05-18T22:59:12.102Z,20.6
2023-05-18T23:05:03.715Z,20.6
2023-05-18T23:10:39.964Z,20.6
2023-05-18T23:16:31.556Z,20.6
2023-05-18T23:22:23.232Z,20.7
2023-05-18T23:28:15.362Z,20.6
2023-05-18T23:34:08.067Z,20.7
2023-05-18T23:39:59.752Z,20.7
2023-05-18T23:45:51.771Z,20.7
2023-05-18T23:51:43.888Z,20.7
2023-05-18T23:57:35.442Z,20.7
